createdAt,value
2022-12-19T00:02:46.804Z,20
2022-12-19T00:31:18.691Z,20
2022-12-19T01:00:13.168Z,19
2022-12-19T01:28:41.128Z,20
2022-12-19T01:57:37.665Z,20
2022-12-19T02:26:09.544Z,19
2022-12-19T02:55:00.914Z,19
2022-12-19T03:23:55.486Z,19
2022-12-19T03:52:48.420Z,19
2022-12-19T04:21:38.408Z,17
2022-12-19T04:50:32.604Z,17
2022-12-19T05:19:17.123Z,17
2022-12-19T05:48:05.118Z,16
2022-12-19T06:16:37.041Z,16
2022-12-19T06:45:17.270Z,18
2022-12-19T07:13:58.415Z,17
2022-12-19T07:42:33.249Z,16
2022-12-19T08:11:02.964Z,16
2022-12-19T08:39:58.191Z,14
2022-12-19T09:08:44.539Z,14
2022-12-19T09:37:21.696Z,13
2022-12-19T10:06:25.554Z,13
2022-12-19T10:34:30.511Z,13
2022-12-19T11:03:09.075Z,13
2022-12-19T12:00:06.076Z,12
2022-12-19T12:31:33.280Z,12
2022-12-19T12:57:01.700Z,12
2022-12-19T13:25:39.113Z,12
2022-12-19T13:54:26.304Z,11
2022-12-19T14:23:36.817Z,11
2022-12-19T14:54:20.209Z,11
2022-12-19T15:20:19.582Z,11
2022-12-19T15:48:58.625Z,10
2022-12-19T16:17:44.682Z,10
2022-12-19T16:46:24.149Z,11
2022-12-19T17:15:06.919Z,11
2022-12-19T17:44:00.294Z,12
2022-12-19T18:12:46.098Z,12
2022-12-19T18:41:37.012Z,11
2022-12-19T19:10:27.249Z,12
2022-12-19T19:39:16.930Z,13
2022-12-19T20:08:06.201Z,13
2022-12-19T20:37:01.535Z,12
2022-12-19T21:06:01.524Z,13
2022-12-19T21:34:48.948Z,13
2022-12-19T22:03:24.437Z,12
2022-12-19T22:32:00.064Z,13
2022-12-19T23:00:38.853Z,13
2022-12-19T23:29:25.190Z,13
2022-12-19T23:58:15.599Z,13
